TimeEDT,TemperatureF,Dew PointF,Humidity,Sea Level PressureIn,VisibilityMPH,Wind Direction,Wind SpeedMPH,Gust SpeedMPH,PrecipitationIn,Events,Conditions,WindDirDegrees,DateUTC
12:12 AM,68.0,66.2,94,29.91,4.0,Calm,Calm,-,N/A,,Mostly Cloudy,0,2013-08-28 04:12:00
12:28 AM,68.0,66.2,94,29.91,5.0,Calm,Calm,-,N/A,,Overcast,0,2013-08-28 04:28:00
12:49 AM,68.0,68.0,100,29.91,1.8,Calm,Calm,-,N/A,,Overcast,0,2013-08-28 04:49:00
12:52 AM,68.0,68.0,100,29.91,1.0,Calm,Calm,-,N/A,,Overcast,0,2013-08-28 04:52:00
1:00 AM,68.0,66.2,94,29.91,0.5,Calm,Calm,-,N/A,Fog,Fog,0,2013-08-28 05:00:00
1:52 AM,66.9,66.9,100,29.89,0.2,Calm,Calm,-,N/A,Fog,Fog,0,2013-08-28 05:52:00
2:52 AM,66.9,66.9,100,29.88,0.2,Calm,Calm,-,N/A,Fog,Fog,0,2013-08-28 06:52:00
3:52 AM,66.0,66.0,100,29.88,0.5,Calm,Calm,-,N/A,Fog,Fog,0,2013-08-28 07:52:00
4:52 AM,66.0,64.9,96,29.88,0.5,Calm,Calm,-,N/A,Fog,Fog,0,2013-08-28 08:52:00
5:52 AM,64.9,64.9,100,29.89,0.2,Calm,Calm,-,N/A,Fog,Fog,0,2013-08-28 09:52:00
6:52 AM,64.9,64.9,100,29.90,0.2,Calm,Calm,-,N/A,Fog,Fog,0,2013-08-28 10:52:00
7:52 AM,66.0,66.0,100,29.91,0.2,Calm,Calm,-,N/A,Fog,Fog,0,2013-08-28 11:52:00
8:29 AM,66.2,66.2,100,29.91,1.2,Calm,Calm,-,N/A,,Overcast,0,2013-08-28 12:29:00
8:33 AM,66.2,66.2,100,29.91,2.0,Calm,Calm,-,N/A,,Overcast,0,2013-08-28 12:33:00
8:52 AM,66.9,66.0,97,29.91,5.0,Calm,Calm,-,N/A,,Overcast,0,2013-08-28 12:52:00
9:21 AM,68.0,66.2,94,29.92,2.0,Calm,Calm,-,N/A,,Overcast,0,2013-08-28 13:21:00
9:31 AM,68.0,66.2,94,29.92,5.0,Calm,Calm,-,N/A,,Overcast,0,2013-08-28 13:31:00
9:52 AM,71.1,68.0,90,29.91,9.0,Calm,Calm,-,N/A,,Overcast,0,2013-08-28 13:52:00
10:08 AM,71.6,68.0,88,29.91,10.0,Calm,Calm,-,N/A,,Scattered Clouds,0,2013-08-28 14:08:00
10:52 AM,75.9,70.0,82,29.91,10.0,Calm,Calm,-,N/A,,Clear,0,2013-08-28 14:52:00
11:52 AM,81.0,69.1,67,29.89,10.0,SW,3.5,-,N/A,,Clear,220,2013-08-28 15:52:00
12:52 PM,81.0,66.9,62,29.88,10.0,SE,3.5,-,N/A,,Mostly Cloudy,130,2013-08-28 16:52:00
1:52 PM,81.0,68.0,65,29.87,10.0,Calm,Calm,-,N/A,,Scattered Clouds,0,2013-08-28 17:52:00
2:52 PM,81.0,66.9,62,29.86,10.0,SE,8.1,-,N/A,,Overcast,140,2013-08-28 18:52:00
3:11 PM,82.4,66.2,58,29.86,10.0,SSE,6.9,-,N/A,Thunderstorm,Mostly Cloudy,160,2013-08-28 19:11:00
3:52 PM,82.9,62.1,49,29.86,10.0,Calm,Calm,-,N/A,Thunderstorm,Thunderstorm,0,2013-08-28 19:52:00
4:13 PM,77.0,68.0,74,29.87,10.0,North,9.2,-,0.00,Rain,Light Rain,10,2013-08-28 20:13:00
4:52 PM,75.9,70.0,82,29.87,10.0,Calm,Calm,-,0.01,,Mostly Cloudy,0,2013-08-28 20:52:00
5:32 PM,75.2,69.8,83,29.86,10.0,Calm,Calm,-,N/A,Thunderstorm,Scattered Clouds,0,2013-08-28 21:32:00
5:47 PM,77.0,69.8,78,29.87,10.0,SSW,4.6,-,N/A,,Mostly Cloudy,210,2013-08-28 21:47:00
5:52 PM,77.0,71.1,82,29.87,10.0,WSW,4.6,-,N/A,,Mostly Cloudy,240,2013-08-28 21:52:00
6:01 PM,75.2,69.8,83,29.88,10.0,South,3.5,-,N/A,Thunderstorm,Mostly Cloudy,190,2013-08-28 22:01:00
6:40 PM,75.2,69.8,83,29.90,10.0,South,5.8,-,N/A,,Scattered Clouds,170,2013-08-28 22:40:00
6:52 PM,73.9,69.1,85,29.90,10.0,SSW,5.8,-,N/A,,Scattered Clouds,210,2013-08-28 22:52:00
7:52 PM,72.0,64.9,78,29.91,10.0,Calm,Calm,-,N/A,,Mostly Cloudy,0,2013-08-28 23:52:00
8:52 PM,69.1,66.0,90,29.93,10.0,East,4.6,-,N/A,,Partly Cloudy,90,2013-08-29 00:52:00
9:52 PM,68.0,66.0,93,29.94,10.0,Calm,Calm,-,N/A,,Clear,0,2013-08-29 01:52:00
10:52 PM,66.9,64.9,93,29.95,10.0,Calm,Calm,-,N/A,,Clear,0,2013-08-29 02:52:00
11:52 PM,68.0,66.0,93,29.96,10.0,Calm,Calm,-,N/A,,Mostly Cloudy,0,2013-08-29 03:52:00